Time;durP1;ratioP1;P1;durP2;ratioP2;P2;SDS_P1;SDS_P2;PMS_P1;PMS_P2;Temp;Humidity;BMP_temperature;BMP_pressure;BME280_temperature;BME280_humidity;BME280_pressure;Samples;Min_cycle;Max_cycle;Signal;HPM_P1;HPM_P2
2021/03/12 00:01:59;;;;;;;35.27;22.93;;;;;;;;;;5056733;28;20226;-91
2021/03/12 00:04:24;;;;;;;36.50;23.60;;;;;;;;;;5039471;28;20595;-91
2021/03/12 00:06:50;;;;;;;33.93;23.47;;;;;;;;;;5039089;28;20172;-91
2021/03/12 00:09:15;;;;;;;33.13;22.60;;;;;;;;;;5057104;28;20195;-91
2021/03/12 00:11:41;;;;;;;33.00;22.13;;;;;;;;;;5057245;28;20287;-91
2021/03/12 00:14:06;;;;;;;31.87;21.60;;;;;;;;;;5056959;28;20589;-91
2021/03/12 00:16:32;;;;;;;33.90;22.50;;;;;;;;;;5038925;28;20718;-91
2021/03/12 00:18:57;;;;;;;33.90;21.60;;;;;;;;;;5039504;28;20179;-91
2021/03/12 00:21:24;;;;;;;32.30;21.63;;;;;;;;;;5038836;28;20180;-91
2021/03/12 00:23:50;;;;;;;36.83;22.83;;;;;;;;;;5039115;28;20174;-91
2021/03/12 00:26:15;;;;;;;33.00;22.30;;;;;;;;;;5038705;28;20183;-92
2021/03/12 00:28:40;;;;;;;36.57;23.07;;;;;;;;;;5038405;28;20238;-91
2021/03/12 00:31:06;;;;;;;32.50;21.97;;;;;;;;;;5038775;28;20245;-92
2021/03/12 00:33:31;;;;;;;35.23;22.07;;;;;;;;;;5038616;28;20534;-91
2021/03/12 00:35:57;;;;;;;35.40;23.17;;;;;;;;;;5056546;28;20204;-91
2021/03/12 00:38:23;;;;;;;33.93;21.87;;;;;;;;;;5037666;28;20172;-91
2021/03/12 00:40:59;;;;;;;33.33;22.57;;;;;;;;;;5056657;28;20176;-92
2021/03/12 00:43:24;;;;;;;32.87;22.00;;;;;;;;;;5056228;28;20197;-91
2021/03/12 00:45:56;;;;;;;33.57;22.30;;;;;;;;;;5056193;28;20180;-92
2021/03/12 00:48:22;;;;;;;34.30;21.97;;;;;;;;;;5038221;28;20204;-91
2021/03/12 00:50:48;;;;;;;31.67;20.53;;;;;;;;;;5056123;28;20203;-90
2021/03/12 00:53:14;;;;;;;33.50;22.23;;;;;;;;;;5056225;28;20187;-92
2021/03/12 00:55:39;;;;;;;32.87;22.40;;;;;;;;;;5038168;28;20689;-90
2021/03/12 00:58:05;;;;;;;33.67;22.07;;;;;;;;;;5055941;28;20512;-90
2021/03/12 01:00:31;;;;;;;31.40;22.27;;;;;;;;;;5056040;28;20171;-90
2021/03/12 01:02:58;;;;;;;31.10;22.00;;;;;;;;;;5037793;28;20212;-90
2021/03/12 01:05:23;;;;;;;32.53;20.73;;;;;;;;;;5038131;28;20250;-90
2021/03/12 01:07:49;;;;;;;32.97;23.23;;;;;;;;;;5056166;28;20603;-90
2021/03/12 01:10:15;;;;;;;33.03;21.07;;;;;;;;;;5037993;28;20619;-91
2021/03/12 01:12:41;;;;;;;30.60;21.07;;;;;;;;;;5038110;28;20164;-90
2021/03/12 01:15:08;;;;;;;32.77;22.30;;;;;;;;;;5055778;28;20218;-91
2021/03/12 01:17:33;;;;;;;30.83;21.50;;;;;;;;;;5038441;28;20222;-90
2021/03/12 01:19:59;;;;;;;32.27;22.37;;;;;;;;;;5055960;28;20174;-90
2021/03/12 01:22:24;;;;;;;35.03;24.00;;;;;;;;;;5055670;28;20168;-90
2021/03/12 01:24:49;;;;;;;35.43;24.03;;;;;;;;;;5056156;28;20164;-90
2021/03/12 01:27:15;;;;;;;35.33;24.07;;;;;;;;;;5055453;28;20171;-92
2021/03/12 01:29:40;;;;;;;34.83;23.00;;;;;;;;;;5056213;28;20637;-92
2021/03/12 01:32:06;;;;;;;36.90;22.67;;;;;;;;;;5062577;28;20163;-92
2021/03/12 01:34:32;;;;;;;32.30;22.57;;;;;;;;;;5061573;28;20172;-92
2021/03/12 01:36:57;;;;;;;34.77;23.47;;;;;;;;;;5061031;28;20202;-91
2021/03/12 01:39:22;;;;;;;36.93;24.63;;;;;;;;;;5072533;28;20172;-92
2021/03/12 01:41:48;;;;;;;33.37;23.27;;;;;;;;;;5050477;28;20181;-92
2021/03/12 01:44:14;;;;;;;31.57;23.13;;;;;;;;;;5042991;28;20223;-92
2021/03/12 01:46:40;;;;;;;35.00;23.00;;;;;;;;;;5037266;28;20176;-91
2021/03/12 01:49:05;;;;;;;36.27;24.17;;;;;;;;;;5037246;28;20193;-92
2021/03/12 01:51:30;;;;;;;37.40;23.90;;;;;;;;;;5037216;28;20262;-92
2021/03/12 01:53:56;;;;;;;37.53;25.50;;;;;;;;;;5055067;28;20195;-92
2021/03/12 01:56:21;;;;;;;37.10;25.20;;;;;;;;;;5036923;28;20298;-92
2021/03/12 01:58:46;;;;;;;35.40;23.87;;;;;;;;;;5037540;28;20182;-93
2021/03/12 02:01:12;;;;;;;35.60;23.50;;;;;;;;;;5054805;28;20509;-90
2021/03/12 02:03:37;;;;;;;36.03;24.43;;;;;;;;;;5037145;28;20230;-91
2021/03/12 02:06:03;;;;;;;36.83;24.43;;;;;;;;;;5036777;28;20179;-91
2021/03/12 02:08:28;;;;;;;37.77;25.03;;;;;;;;;;5037004;28;20176;-91
2021/03/12 02:10:54;;;;;;;40.10;25.47;;;;;;;;;;5054518;28;20565;-90
2021/03/12 02:13:19;;;;;;;36.93;24.23;;;;;;;;;;5054196;28;20168;-91
2021/03/12 02:15:47;;;;;;;39.07;24.50;;;;;;;;;;5054562;28;20196;-91
2021/03/12 02:18:33;;;;;;;41.17;25.00;;;;;;;;;;5036657;28;20203;-91
2021/03/12 02:21:04;;;;;;;37.50;24.70;;;;;;;;;;5053900;28;20191;-91
2021/03/12 02:23:44;;;;;;;38.33;25.70;;;;;;;;;;5055167;28;20267;-91
2021/03/12 02:26:11;;;;;;;35.30;23.83;;;;;;;;;;5037310;28;20558;-91
2021/03/12 02:28:38;;;;;;;37.73;24.33;;;;;;;;;;5054239;28;20176;-91
2021/03/12 02:31:04;;;;;;;36.40;24.73;;;;;;;;;;5036416;28;20262;-91
2021/03/12 02:33:31;;;;;;;40.03;25.67;;;;;;;;;;5036423;28;20176;-91
2021/03/12 02:35:56;;;;;;;40.40;25.90;;;;;;;;;;5054080;28;20206;-92
2021/03/12 02:38:23;;;;;;;38.60;25.30;;;;;;;;;;5054541;28;20516;-91
2021/03/12 02:40:49;;;;;;;39.40;26.47;;;;;;;;;;5054484;28;20175;-91
2021/03/12 02:43:14;;;;;;;38.97;27.23;;;;;;;;;;5053930;28;20195;-90
2021/03/12 02:45:40;;;;;;;41.90;26.73;;;;;;;;;;5054252;28;20174;-89
2021/03/12 02:48:05;;;;;;;40.07;26.70;;;;;;;;;;5053989;28;20625;-91
2021/03/12 02:50:31;;;;;;;39.60;26.57;;;;;;;;;;5054172;28;20485;-90
2021/03/12 02:52:58;;;;;;;39.87;26.10;;;;;;;;;;5054396;28;20230;-92
2021/03/12 02:55:23;;;;;;;40.27;26.43;;;;;;;;;;5035955;28;20207;-92
2021/03/12 02:57:49;;;;;;;36.00;25.67;;;;;;;;;;5053850;28;20626;-90
2021/03/12 03:00:15;;;;;;;38.93;26.17;;;;;;;;;;5053827;28;20171;-91
2021/03/12 03:02:41;;;;;;;39.37;26.77;;;;;;;;;;5053620;28;20171;-90
2021/03/12 03:05:07;;;;;;;37.00;25.63;;;;;;;;;;5035828;28;20194;-91
2021/03/12 03:07:33;;;;;;;41.10;26.53;;;;;;;;;;5036002;28;20175;-90
2021/03/12 03:09:58;;;;;;;41.77;27.27;;;;;;;;;;5036074;28;20175;-91
2021/03/12 03:12:25;;;;;;;38.60;25.73;;;;;;;;;;5036279;28;20183;-92
2021/03/12 03:14:55;;;;;;;38.30;25.57;;;;;;;;;;5054114;28;20171;-91
2021/03/12 03:17:21;;;;;;;38.03;26.57;;;;;;;;;;5036907;28;20245;-91
2021/03/12 03:19:47;;;;;;;39.07;26.57;;;;;;;;;;5053488;28;20618;-91
2021/03/12 03:22:13;;;;;;;40.90;27.37;;;;;;;;;;5053776;28;20171;-91
2021/03/12 03:24:38;;;;;;;42.33;27.43;;;;;;;;;;5035719;28;20182;-91
2021/03/12 03:27:06;;;;;;;42.07;26.73;;;;;;;;;;5053639;28;20213;-91
2021/03/12 03:29:31;;;;;;;40.77;27.07;;;;;;;;;;5035597;28;20195;-90
2021/03/12 03:31:56;;;;;;;41.13;26.70;;;;;;;;;;5053443;28;20207;-91
2021/03/12 03:34:22;;;;;;;40.87;27.53;;;;;;;;;;5053844;28;20514;-91
2021/03/12 03:36:47;;;;;;;46.27;28.80;;;;;;;;;;5053130;28;20345;-90
2021/03/12 03:39:12;;;;;;;41.50;28.40;;;;;;;;;;5053491;28;20254;-91
2021/03/12 03:41:44;;;;;;;40.37;26.20;;;;;;;;;;5057630;28;20187;-92
2021/03/12 03:44:10;;;;;;;42.73;26.37;;;;;;;;;;5057976;28;20196;-92
2021/03/12 03:46:40;;;;;;;46.70;29.60;;;;;;;;;;5057454;28;20183;-92
2021/03/12 03:49:08;;;;;;;44.93;29.00;;;;;;;;;;5045754;28;20175;-91
2021/03/12 03:51:33;;;;;;;43.73;28.03;;;;;;;;;;5036296;28;20228;-91
2021/03/12 03:53:59;;;;;;;42.23;27.30;;;;;;;;;;5015703;28;20176;-92
2021/03/12 03:56:24;;;;;;;41.10;27.70;;;;;;;;;;5016111;28;20204;-91
2021/03/12 03:58:50;;;;;;;43.93;28.33;;;;;;;;;;5015994;28;20532;-92
2021/03/12 04:01:16;;;;;;;42.33;28.70;;;;;;;;;;5015716;28;20635;-92
2021/03/12 04:03:42;;;;;;;40.53;27.90;;;;;;;;;;5015848;28;20253;-91
2021/03/12 04:06:09;;;;;;;41.87;27.73;;;;;;;;;;5033425;28;20632;-92
2021/03/12 04:08:34;;;;;;;41.93;28.03;;;;;;;;;;5032860;28;20173;-91
2021/03/12 04:11:00;;;;;;;43.87;28.70;;;;;;;;;;5016005;28;20184;-92
2021/03/12 04:13:26;;;;;;;42.40;27.80;;;;;;;;;;5035037;28;20628;-91
2021/03/12 04:15:52;;;;;;;40.10;26.60;;;;;;;;;;5019052;28;20215;-91
2021/03/12 04:18:17;;;;;;;46.03;28.70;;;;;;;;;;5019697;28;20168;-91
2021/03/12 04:20:43;;;;;;;39.70;26.97;;;;;;;;;;5019492;28;20269;-92
2021/03/12 04:23:08;;;;;;;39.90;26.37;;;;;;;;;;5019117;28;20228;-91
2021/03/12 04:25:34;;;;;;;42.40;26.03;;;;;;;;;;5019235;28;20271;-91
2021/03/12 04:28:00;;;;;;;41.13;27.07;;;;;;;;;;5036519;28;20531;-92
2021/03/12 04:30:26;;;;;;;41.27;25.70;;;;;;;;;;5036778;28;20164;-92
2021/03/12 04:32:52;;;;;;;42.67;27.57;;;;;;;;;;5018926;28;20179;-91
2021/03/12 04:35:17;;;;;;;46.57;27.80;;;;;;;;;;5036543;28;20204;-92
2021/03/12 04:37:43;;;;;;;44.37;27.43;;;;;;;;;;5018904;28;20538;-91
2021/03/12 04:40:09;;;;;;;39.60;26.83;;;;;;;;;;5036540;28;20635;-91
2021/03/12 04:42:35;;;;;;;38.30;26.93;;;;;;;;;;5036395;28;20200;-91
2021/03/12 04:45:02;;;;;;;42.97;27.03;;;;;;;;;;5018525;28;20181;-91
2021/03/12 04:47:28;;;;;;;42.07;27.67;;;;;;;;;;5036500;28;20222;-92
2021/03/12 04:49:54;;;;;;;43.33;26.60;;;;;;;;;;5018847;28;20192;-90
2021/03/12 04:52:19;;;;;;;40.70;26.87;;;;;;;;;;5049657;28;20227;-89
2021/03/12 04:54:45;;;;;;;41.67;26.40;;;;;;;;;;5038596;28;20180;-90
2021/03/12 04:57:12;;;;;;;41.10;26.87;;;;;;;;;;5056422;28;20168;-90
2021/03/12 04:59:37;;;;;;;40.33;25.77;;;;;;;;;;5056539;28;20595;-90
2021/03/12 05:02:02;;;;;;;40.57;26.23;;;;;;;;;;5055937;28;20175;-90
2021/03/12 05:04:28;;;;;;;37.83;25.13;;;;;;;;;;5056406;28;20607;-91
2021/03/12 05:06:53;;;;;;;36.30;24.93;;;;;;;;;;5037925;28;20657;-90
2021/03/12 05:09:19;;;;;;;40.00;25.93;;;;;;;;;;5055788;28;20164;-90
2021/03/12 05:11:44;;;;;;;41.23;26.53;;;;;;;;;;5055580;28;20208;-90
2021/03/12 05:14:10;;;;;;;38.07;25.13;;;;;;;;;;5037853;28;20175;-90
2021/03/12 05:16:35;;;;;;;37.17;25.30;;;;;;;;;;5037542;28;20203;-90
2021/03/12 05:19:01;;;;;;;36.67;23.70;;;;;;;;;;5055957;28;20266;-90
2021/03/12 05:21:26;;;;;;;39.10;25.67;;;;;;;;;;5038021;28;20283;-90
2021/03/12 05:23:51;;;;;;;41.97;26.93;;;;;;;;;;5055119;28;20168;-90
2021/03/12 05:26:17;;;;;;;46.20;30.27;;;;;;;;;;5055469;28;20168;-90
2021/03/12 05:28:42;;;;;;;50.30;31.93;;;;;;;;;;5037683;28;20322;-89
2021/03/12 05:31:07;;;;;;;53.23;33.27;;;;;;;;;;5038140;28;20510;-89
2021/03/12 05:33:33;;;;;;;49.27;32.37;;;;;;;;;;5055145;28;20242;-90
2021/03/12 05:35:58;;;;;;;52.13;38.93;;;;;;;;;;5055363;28;20256;-90
2021/03/12 05:38:23;;;;;;;39.17;26.97;;;;;;;;;;5037513;28;20176;-91
2021/03/12 05:40:49;;;;;;;40.13;26.43;;;;;;;;;;5055521;28;20168;-91
2021/03/12 05:43:14;;;;;;;41.43;26.37;;;;;;;;;;5055047;28;20801;-92
2021/03/12 05:45:40;;;;;;;44.77;28.63;;;;;;;;;;5037592;28;20186;-91
2021/03/12 05:48:06;;;;;;;48.40;29.63;;;;;;;;;;5037415;28;20622;-91
2021/03/12 05:50:31;;;;;;;40.00;28.20;;;;;;;;;;5037860;28;20186;-91
2021/03/12 05:52:57;;;;;;;44.33;28.90;;;;;;;;;;5046251;28;20228;-92
2021/03/12 05:55:22;;;;;;;44.70;30.03;;;;;;;;;;5060191;28;20199;-91
2021/03/12 05:57:47;;;;;;;37.10;24.43;;;;;;;;;;5077211;28;20187;-92
2021/03/12 06:00:14;;;;;;;38.63;26.17;;;;;;;;;;5068698;28;20179;-93
2021/03/12 06:02:39;;;;;;;42.37;28.73;;;;;;;;;;5045482;28;20184;-91
2021/03/12 06:05:08;;;;;;;36.87;25.03;;;;;;;;;;5056642;28;20637;-90
2021/03/12 06:07:34;;;;;;;39.07;26.23;;;;;;;;;;5055459;28;20167;-93
2021/03/12 06:10:00;;;;;;;37.30;25.70;;;;;;;;;;5037683;28;20203;-93
2021/03/12 06:12:25;;;;;;;39.17;24.50;;;;;;;;;;5037255;28;20195;-93
2021/03/12 06:14:52;;;;;;;38.10;24.87;;;;;;;;;;5036838;28;20172;-90
2021/03/12 06:17:32;;;;;;;41.00;26.10;;;;;;;;;;5037144;28;20168;-90
2021/03/12 06:19:58;;;;;;;37.00;25.17;;;;;;;;;;5036692;28;20178;-91
2021/03/12 06:22:23;;;;;;;35.80;24.60;;;;;;;;;;5054256;28;20239;-91
2021/03/12 06:24:49;;;;;;;41.70;27.57;;;;;;;;;;5054537;28;20259;-91
2021/03/12 06:27:29;;;;;;;31.70;22.03;;;;;;;;;;5054871;28;20175;-92
2021/03/12 06:29:59;;;;;;;35.27;23.30;;;;;;;;;;5037144;28;20182;-91
2021/03/12 06:32:38;;;;;;;29.87;20.70;;;;;;;;;;5036625;28;20191;-93
2021/03/12 06:35:04;;;;;;;28.37;21.37;;;;;;;;;;5036487;28;20206;-91
2021/03/12 06:37:30;;;;;;;33.57;23.17;;;;;;;;;;5053673;28;20176;-92
2021/03/12 06:39:55;;;;;;;30.50;22.07;;;;;;;;;;5054289;28;20175;-91
2021/03/12 06:42:21;;;;;;;29.77;22.10;;;;;;;;;;5054135;28;20251;-91
2021/03/12 06:44:46;;;;;;;33.80;22.80;;;;;;;;;;5036313;28;20175;-90
2021/03/12 06:47:11;;;;;;;30.43;22.83;;;;;;;;;;5054217;28;20525;-91
2021/03/12 06:49:56;;;;;;;35.37;24.93;;;;;;;;;;5036203;28;20543;-91
2021/03/12 06:52:35;;;;;;;40.63;29.23;;;;;;;;;;5053677;28;20242;-91
2021/03/12 06:55:02;;;;;;;38.93;27.10;;;;;;;;;;5054048;28;20168;-91
2021/03/12 06:57:27;;;;;;;32.23;22.57;;;;;;;;;;5053730;28;20175;-90
2021/03/12 07:00:06;;;;;;;31.13;21.40;;;;;;;;;;5054339;28;20164;-90
2021/03/12 07:02:32;;;;;;;30.07;20.67;;;;;;;;;;5053953;28;20610;-90
2021/03/12 07:04:58;;;;;;;32.00;21.60;;;;;;;;;;5054366;28;20168;-90
2021/03/12 07:07:41;;;;;;;29.00;20.73;;;;;;;;;;5035687;28;20198;-90
2021/03/12 07:10:07;;;;;;;33.87;21.60;;;;;;;;;;5054112;28;20276;-90
2021/03/12 07:12:50;;;;;;;34.90;22.07;;;;;;;;;;5054498;28;20199;-90
2021/03/12 07:15:16;;;;;;;37.57;23.30;;;;;;;;;;5052535;28;20203;-90
2021/03/12 07:17:41;;;;;;;30.87;20.63;;;;;;;;;;5052286;28;20615;-90
2021/03/12 07:20:08;;;;;;;29.70;20.43;;;;;;;;;;5053467;28;20175;-90
2021/03/12 07:22:35;;;;;;;25.83;18.90;;;;;;;;;;5052441;28;20699;-92
2021/03/12 07:25:02;;;;;;;26.83;18.70;;;;;;;;;;5052832;28;20522;-91
2021/03/12 07:27:30;;;;;;;28.13;19.90;;;;;;;;;;5053367;28;20255;-92
2021/03/12 07:29:56;;;;;;;29.90;20.80;;;;;;;;;;5052204;28;20183;-91
2021/03/12 07:32:24;;;;;;;26.67;19.10;;;;;;;;;;5053570;28;20254;-90
2021/03/12 07:34:50;;;;;;;39.97;27.20;;;;;;;;;;5052001;28;20597;-90
2021/03/12 07:37:18;;;;;;;46.13;29.03;;;;;;;;;;5053533;28;20259;-90
2021/03/12 07:39:44;;;;;;;34.73;23.63;;;;;;;;;;5048916;28;20176;-89
2021/03/12 07:42:10;;;;;;;31.83;22.47;;;;;;;;;;5037487;28;20234;-88
2021/03/12 07:44:37;;;;;;;31.70;25.73;;;;;;;;;;5050144;28;20168;-88
2021/03/12 07:47:03;;;;;;;25.97;18.93;;;;;;;;;;5052696;28;20717;-90
2021/03/12 07:49:28;;;;;;;24.70;18.27;;;;;;;;;;5060984;28;20257;-89
2021/03/12 07:51:53;;;;;;;26.50;18.07;;;;;;;;;;5049564;28;20231;-90
2021/03/12 07:54:37;;;;;;;22.47;17.90;;;;;;;;;;5057833;28;20176;-89
2021/03/12 07:57:03;;;;;;;23.00;16.77;;;;;;;;;;5037636;28;20233;-91
2021/03/12 07:59:46;;;;;;;24.43;17.30;;;;;;;;;;5037662;28;20622;-90
2021/03/12 08:02:15;;;;;;;23.60;16.77;;;;;;;;;;5055136;28;20222;-90
2021/03/12 08:04:41;;;;;;;25.63;18.23;;;;;;;;;;5055517;28;20179;-89
2021/03/12 08:07:21;;;;;;;18.83;14.83;;;;;;;;;;5055488;28;20175;-91
2021/03/12 08:09:46;;;;;;;25.83;18.20;;;;;;;;;;5055328;28;20222;-90
2021/03/12 08:12:30;;;;;;;21.40;15.93;;;;;;;;;;5054916;28;20167;-91
2021/03/12 08:15:15;;;;;;;18.47;15.00;;;;;;;;;;5054983;28;20200;-91
2021/03/12 08:17:41;;;;;;;20.10;16.03;;;;;;;;;;5055653;28;20164;-92
2021/03/12 08:20:36;;;;;;;20.93;16.13;;;;;;;;;;5056836;28;20483;-91
2021/03/12 08:23:02;;;;;;;17.30;14.70;;;;;;;;;;5036115;28;20257;-92
2021/03/12 08:25:36;;;;;;;19.17;16.20;;;;;;;;;;5038659;28;20230;-89
2021/03/12 08:28:08;;;;;;;24.40;17.93;;;;;;;;;;5039129;28;20183;-91
2021/03/12 08:30:36;;;;;;;18.73;15.07;;;;;;;;;;5038530;28;20534;-90
2021/03/12 08:33:08;;;;;;;23.93;18.17;;;;;;;;;;5037141;28;20180;-92
2021/03/12 08:35:38;;;;;;;24.07;17.20;;;;;;;;;;5036897;28;20202;-90
2021/03/12 08:38:30;;;;;;;19.23;14.50;;;;;;;;;;5055939;28;20172;-89
2021/03/12 08:41:00;;;;;;;19.07;14.77;;;;;;;;;;5056316;28;20152;-90
2021/03/12 08:43:29;;;;;;;23.90;17.63;;;;;;;;;;5056818;28;20650;-90
2021/03/12 08:45:54;;;;;;;19.00;14.50;;;;;;;;;;5056370;28;20230;-93
2021/03/12 08:48:21;;;;;;;17.13;14.27;;;;;;;;;;5039157;28;20176;-92
2021/03/12 08:50:50;;;;;;;24.00;17.83;;;;;;;;;;5033613;28;20231;-91
2021/03/12 08:53:16;;;;;;;21.10;16.47;;;;;;;;;;5038230;28;20180;-92
2021/03/12 08:55:46;;;;;;;19.53;15.70;;;;;;;;;;5056534;28;20207;-92
2021/03/12 08:58:12;;;;;;;14.13;12.20;;;;;;;;;;5055461;28;20214;-91
2021/03/12 09:00:37;;;;;;;19.17;13.07;;;;;;;;;;5045262;28;20207;-90
2021/03/12 09:03:38;;;;;;;16.47;13.57;;;;;;;;;;5019526;28;20192;-91
2021/03/12 09:06:04;;;;;;;14.33;11.10;;;;;;;;;;4974473;28;20195;-91
2021/03/12 09:08:30;;;;;;;15.17;12.83;;;;;;;;;;5054827;28;20217;-91
2021/03/12 09:10:56;;;;;;;19.57;14.23;;;;;;;;;;5075985;28;20167;-91
2021/03/12 09:13:22;;;;;;;18.67;14.50;;;;;;;;;;5057738;28;20183;-89
2021/03/12 09:15:50;;;;;;;21.40;14.73;;;;;;;;;;5075986;28;20203;-91
2021/03/12 09:18:16;;;;;;;23.73;14.37;;;;;;;;;;5075693;28;20180;-88
2021/03/12 09:20:42;;;;;;;23.17;15.80;;;;;;;;;;5076019;28;20178;-89
2021/03/12 09:23:07;;;;;;;16.83;12.37;;;;;;;;;;5075425;28;20167;-88
2021/03/12 09:25:33;;;;;;;17.83;13.13;;;;;;;;;;5055913;28;20187;-88
2021/03/12 09:28:02;;;;;;;20.80;15.53;;;;;;;;;;5074092;28;20198;-90
2021/03/12 09:30:32;;;;;;;20.87;16.83;;;;;;;;;;5073473;28;20695;-88
2021/03/12 09:32:58;;;;;;;19.63;16.53;;;;;;;;;;5073854;28;20202;-88
2021/03/12 09:35:24;;;;;;;20.83;17.13;;;;;;;;;;5057570;28;20666;-90
2021/03/12 09:37:50;;;;;;;18.23;15.23;;;;;;;;;;5034789;28;20180;-90
2021/03/12 09:40:29;;;;;;;15.60;13.87;;;;;;;;;;5032242;28;20191;-88
2021/03/12 09:42:54;;;;;;;18.80;14.63;;;;;;;;;;5035284;28;20215;-88
2021/03/12 09:45:23;;;;;;;16.90;14.10;;;;;;;;;;5053138;28;20180;-88
2021/03/12 09:47:50;;;;;;;16.03;14.33;;;;;;;;;;5053450;28;20180;-88
2021/03/12 09:50:16;;;;;;;17.63;15.30;;;;;;;;;;5028640;28;20276;-87
2021/03/12 09:52:41;;;;;;;20.07;14.80;;;;;;;;;;5051925;28;20285;-87
2021/03/12 09:55:07;;;;;;;19.60;15.93;;;;;;;;;;5055173;28;20163;-86
2021/03/12 09:57:32;;;;;;;16.90;15.00;;;;;;;;;;5036500;28;20626;-87
2021/03/12 09:59:58;;;;;;;18.37;14.87;;;;;;;;;;5054554;28;20535;-87
2021/03/12 10:02:23;;;;;;;17.67;15.40;;;;;;;;;;5036814;28;20183;-88
2021/03/12 10:04:59;;;;;;;14.50;12.80;;;;;;;;;;5053540;28;20175;-87
2021/03/12 10:07:34;;;;;;;15.80;13.50;;;;;;;;;;5054729;28;20207;-87
2021/03/12 10:10:10;;;;;;;15.73;13.27;;;;;;;;;;5018078;28;20685;-87
2021/03/12 10:12:39;;;;;;;15.23;13.03;;;;;;;;;;5034442;28;20175;-88
2021/03/12 10:15:12;;;;;;;17.17;13.10;;;;;;;;;;5017111;28;20181;-88
2021/03/12 10:17:40;;;;;;;15.97;12.20;;;;;;;;;;5051069;28;20586;-87
2021/03/12 10:20:06;;;;;;;14.90;11.30;;;;;;;;;;5031455;28;20223;-87
2021/03/12 10:22:39;;;;;;;13.13;10.70;;;;;;;;;;5054117;28;20595;-87
2021/03/12 10:25:16;;;;;;;14.07;11.93;;;;;;;;;;5054687;28;20207;-88
2021/03/12 10:27:44;;;;;;;15.73;11.27;;;;;;;;;;5054380;28;20175;-86
2021/03/12 10:30:17;;;;;;;14.70;11.17;;;;;;;;;;5054056;28;20179;-89
2021/03/12 10:32:47;;;;;;;11.63;9.77;;;;;;;;;;5053859;28;20229;-88
2021/03/12 10:35:25;;;;;;;14.57;10.03;;;;;;;;;;5053718;28;20654;-89
2021/03/12 10:37:55;;;;;;;13.30;9.57;;;;;;;;;;5054001;28;20181;-88
2021/03/12 10:40:21;;;;;;;14.40;11.47;;;;;;;;;;5034297;28;20183;-88
2021/03/12 10:42:48;;;;;;;15.70;12.73;;;;;;;;;;5052315;28;20199;-88
2021/03/12 10:45:29;;;;;;;11.03;9.80;;;;;;;;;;5053847;28;20255;-89
2021/03/12 10:47:55;;;;;;;12.50;10.20;;;;;;;;;;5034882;28;20286;-89
2021/03/12 10:50:23;;;;;;;12.40;9.90;;;;;;;;;;5053341;28;20186;-89
2021/03/12 10:52:49;;;;;;;9.83;8.33;;;;;;;;;;5054356;28;20231;-89
2021/03/12 10:55:14;;;;;;;12.60;9.70;;;;;;;;;;5035927;28;20215;-90
2021/03/12 10:57:49;;;;;;;11.57;8.87;;;;;;;;;;5054125;28;20260;-88
2021/03/12 11:00:15;;;;;;;12.07;9.00;;;;;;;;;;5054029;28;20174;-90
2021/03/12 11:02:40;;;;;;;15.77;10.50;;;;;;;;;;5035417;28;20176;-90
2021/03/12 11:05:06;;;;;;;13.93;10.00;;;;;;;;;;5053612;28;20171;-90
2021/03/12 11:07:32;;;;;;;12.70;9.90;;;;;;;;;;5054036;28;20216;-89
2021/03/12 11:09:58;;;;;;;13.57;9.97;;;;;;;;;;5036028;28;20175;-89
2021/03/12 11:12:23;;;;;;;12.63;9.50;;;;;;;;;;5053591;28;20179;-89
2021/03/12 11:14:49;;;;;;;13.13;10.37;;;;;;;;;;5053296;28;20203;-89
2021/03/12 11:17:14;;;;;;;15.07;10.80;;;;;;;;;;5035782;28;20230;-90
2021/03/12 11:19:39;;;;;;;13.00;10.07;;;;;;;;;;5054210;28;20171;-89
2021/03/12 11:22:06;;;;;;;11.97;9.70;;;;;;;;;;5056366;28;20259;-88
2021/03/12 11:24:31;;;;;;;14.43;9.97;;;;;;;;;;5060416;28;20259;-90
2021/03/12 11:26:57;;;;;;;13.43;10.70;;;;;;;;;;5059734;28;20642;-89
2021/03/12 11:29:22;;;;;;;14.90;10.43;;;;;;;;;;5058609;28;20179;-89
2021/03/12 11:31:47;;;;;;;13.10;9.47;;;;;;;;;;5058309;28;20178;-88
2021/03/12 11:34:13;;;;;;;9.90;8.03;;;;;;;;;;5057814;28;20538;-89
2021/03/12 11:36:38;;;;;;;9.50;7.93;;;;;;;;;;5040229;28;20246;-89
2021/03/12 11:39:03;;;;;;;12.50;8.10;;;;;;;;;;5059941;28;20271;-89
2021/03/12 11:41:29;;;;;;;9.90;7.97;;;;;;;;;;5042231;28;20611;-89
2021/03/12 11:43:54;;;;;;;9.20;8.30;;;;;;;;;;5041416;28;20203;-90
2021/03/12 11:46:21;;;;;;;7.67;6.60;;;;;;;;;;5042340;28;20183;-88
2021/03/12 11:48:46;;;;;;;9.93;7.87;;;;;;;;;;5060926;28;20175;-88
2021/03/12 11:51:11;;;;;;;9.33;7.23;;;;;;;;;;5060053;28;20558;-87
2021/03/12 11:53:36;;;;;;;6.83;6.10;;;;;;;;;;5060318;28;20260;-88
2021/03/12 11:56:02;;;;;;;8.60;7.20;;;;;;;;;;5058889;28;20196;-88
2021/03/12 11:58:27;;;;;;;8.53;7.60;;;;;;;;;;5034882;28;20184;-87
2021/03/12 12:00:52;;;;;;;9.47;7.57;;;;;;;;;;5039966;28;20169;-86
2021/03/12 12:03:18;;;;;;;11.43;8.00;;;;;;;;;;5066956;28;20653;-87
2021/03/12 12:05:45;;;;;;;9.10;6.67;;;;;;;;;;5061237;28;20191;-88
2021/03/12 12:08:10;;;;;;;8.37;7.13;;;;;;;;;;5058127;28;20178;-88
2021/03/12 12:10:36;;;;;;;7.50;6.63;;;;;;;;;;5060144;28;20626;-87
2021/03/12 12:13:01;;;;;;;8.50;6.40;;;;;;;;;;5059605;28;20195;-87
2021/03/12 12:15:30;;;;;;;10.30;7.00;;;;;;;;;;5059601;28;20191;-89
2021/03/12 12:17:59;;;;;;;7.87;6.60;;;;;;;;;;5059948;28;20171;-89
2021/03/12 12:20:24;;;;;;;8.27;6.40;;;;;;;;;;5060542;28;20172;-89
2021/03/12 12:22:50;;;;;;;13.00;7.20;;;;;;;;;;5059664;28;20224;-89
2021/03/12 12:25:16;;;;;;;9.60;6.83;;;;;;;;;;5058219;28;20203;-89
2021/03/12 12:27:41;;;;;;;8.00;6.00;;;;;;;;;;5058191;28;20537;-88
2021/03/12 12:30:07;;;;;;;8.67;7.00;;;;;;;;;;5057258;28;20171;-87
2021/03/12 12:32:33;;;;;;;10.27;7.10;;;;;;;;;;5057481;28;20180;-87
2021/03/12 12:34:58;;;;;;;9.33;7.50;;;;;;;;;;5054892;28;20239;-87
2021/03/12 12:37:24;;;;;;;8.33;7.47;;;;;;;;;;5055935;28;20309;-87
2021/03/12 12:39:49;;;;;;;8.00;7.17;;;;;;;;;;5056528;28;20175;-88
2021/03/12 12:42:14;;;;;;;10.80;8.30;;;;;;;;;;5056052;28;20164;-88
2021/03/12 12:44:39;;;;;;;8.23;7.00;;;;;;;;;;5056290;28;20191;-87
2021/03/12 12:47:05;;;;;;;7.90;6.60;;;;;;;;;;5056422;28;20531;-87
2021/03/12 12:49:30;;;;;;;9.37;7.17;;;;;;;;;;5056581;28;20168;-88
2021/03/12 12:51:55;;;;;;;9.10;7.63;;;;;;;;;;5056326;28;20250;-91
2021/03/12 12:54:21;;;;;;;8.23;7.33;;;;;;;;;;5056379;28;20178;-91
2021/03/12 12:56:46;;;;;;;8.47;6.70;;;;;;;;;;5038089;28;20207;-90
2021/03/12 12:59:13;;;;;;;9.97;8.23;;;;;;;;;;5055738;28;20199;-91
2021/03/12 13:01:38;;;;;;;11.43;8.90;;;;;;;;;;5055846;28;20168;-89
2021/03/12 13:04:04;;;;;;;8.70;7.20;;;;;;;;;;5066845;28;20244;-88
2021/03/12 13:06:29;;;;;;;9.60;6.73;;;;;;;;;;5074428;28;20203;-88
2021/03/12 13:08:55;;;;;;;12.17;8.40;;;;;;;;;;5076143;28;20262;-88
2021/03/12 13:11:20;;;;;;;9.20;7.43;;;;;;;;;;5075500;28;20575;-90
2021/03/12 13:13:46;;;;;;;13.80;8.33;;;;;;;;;;5075181;28;20236;-90
2021/03/12 13:16:15;;;;;;;13.53;9.93;;;;;;;;;;5075079;28;20195;-90
2021/03/12 13:18:40;;;;;;;12.00;8.93;;;;;;;;;;5069360;28;20175;-89
2021/03/12 13:21:06;;;;;;;11.67;8.30;;;;;;;;;;5055489;28;20160;-89
2021/03/12 13:23:37;;;;;;;8.97;7.23;;;;;;;;;;5055216;28;20164;-87
2021/03/12 13:26:03;;;;;;;7.93;7.13;;;;;;;;;;5055241;28;20598;-88
2021/03/12 13:28:30;;;;;;;9.63;6.70;;;;;;;;;;5037452;28;20202;-87
2021/03/12 13:30:55;;;;;;;19.90;15.23;;;;;;;;;;5055465;28;20168;-88
2021/03/12 13:33:21;;;;;;;22.43;14.17;;;;;;;;;;5055049;28;20640;-88
2021/03/12 13:35:50;;;;;;;58.10;33.97;;;;;;;;;;5055170;28;20207;-89
2021/03/12 13:38:16;;;;;;;80.87;45.07;;;;;;;;;;5055238;28;20631;-88
2021/03/12 13:40:42;;;;;;;27.30;18.43;;;;;;;;;;5054093;28;20164;-87
2021/03/12 13:43:07;;;;;;;20.47;16.67;;;;;;;;;;5052520;28;20237;-88
2021/03/12 13:45:33;;;;;;;23.63;17.43;;;;;;;;;;5033296;28;20164;-88
2021/03/12 13:47:58;;;;;;;35.10;26.13;;;;;;;;;;5033667;28;20207;-88
2021/03/12 13:50:24;;;;;;;24.00;17.23;;;;;;;;;;5044495;28;20230;-86
2021/03/12 13:52:50;;;;;;;43.57;27.50;;;;;;;;;;5053751;28;20242;-87
2021/03/12 13:55:15;;;;;;;26.80;14.47;;;;;;;;;;5053284;28;20167;-88
2021/03/12 13:57:41;;;;;;;22.60;15.40;;;;;;;;;;5052231;28;20517;-87
2021/03/12 14:00:08;;;;;;;19.67;16.00;;;;;;;;;;5053115;28;20180;-88
2021/03/12 14:02:33;;;;;;;43.30;28.33;;;;;;;;;;5053072;28;20530;-88
2021/03/12 14:04:59;;;;;;;83.50;48.77;;;;;;;;;;5053221;28;20179;-87
2021/03/12 14:07:24;;;;;;;69.70;35.73;;;;;;;;;;5053405;28;20222;-86
2021/03/12 14:09:50;;;;;;;39.17;21.63;;;;;;;;;;5052745;28;20171;-87
2021/03/12 14:12:15;;;;;;;46.40;25.27;;;;;;;;;;5036239;28;20182;-87
2021/03/12 14:14:41;;;;;;;21.67;14.83;;;;;;;;;;5054652;28;20523;-87
2021/03/12 14:17:07;;;;;;;24.03;17.10;;;;;;;;;;5036500;28;20577;-87
2021/03/12 14:19:32;;;;;;;13.63;9.97;;;;;;;;;;5054876;28;20175;-88
2021/03/12 14:21:57;;;;;;;30.03;18.77;;;;;;;;;;5054296;28;20626;-89